sensor_id;sensor_type;location;lat;lon;timestamp;P1;durP1;ratioP1;P2;durP2;ratioP2
1987;SDS011;12775;46.994;15.498;2022-08-19T00:00:40;4.76;;;3.06;;
1987;SDS011;12775;46.994;15.498;2022-08-19T00:03:08;6.66;;;2.84;;
1987;SDS011;12775;46.994;15.498;2022-08-19T00:05:35;10.50;;;3.18;;
1987;SDS011;12775;46.994;15.498;2022-08-19T00:08:02;4.76;;;3.10;;
1987;SDS011;12775;46.994;15.498;2022-08-19T00:10:30;5.70;;;3.40;;
1987;SDS011;12775;46.994;15.498;2022-08-19T00:12:57;6.22;;;3.40;;
1987;SDS011;12775;46.994;15.498;2022-08-19T00:15:25;6.66;;;3.68;;
1987;SDS011;12775;46.994;15.498;2022-08-19T00:17:53;4.62;;;3.06;;
1987;SDS011;12775;46.994;15.498;2022-08-19T00:20:21;4.16;;;3.46;;
1987;SDS011;12775;46.994;15.498;2022-08-19T00:22:48;5.08;;;2.88;;
1987;SDS011;12775;46.994;15.498;2022-08-19T00:25:15;9.44;;;3.70;;
1987;SDS011;12775;46.994;15.498;2022-08-19T00:27:43;3.36;;;2.84;;
1987;SDS011;12775;46.994;15.498;2022-08-19T00:30:11;4.46;;;2.64;;
1987;SDS011;12775;46.994;15.498;2022-08-19T00:32:38;4.86;;;2.66;;
1987;SDS011;12775;46.994;15.498;2022-08-19T00:35:06;5.84;;;3.00;;
1987;SDS011;12775;46.994;15.498;2022-08-19T00:37:34;7.30;;;3.18;;
1987;SDS011;12775;46.994;15.498;2022-08-19T00:40:04;6.54;;;4.00;;
1987;SDS011;12775;46.994;15.498;2022-08-19T00:42:28;8.02;;;3.28;;
1987;SDS011;12775;46.994;15.498;2022-08-19T00:44:56;5.68;;;4.04;;
1987;SDS011;12775;46.994;15.498;2022-08-19T00:47:23;6.74;;;3.12;;
1987;SDS011;12775;46.994;15.498;2022-08-19T00:49:52;4.80;;;2.68;;
1987;SDS011;12775;46.994;15.498;2022-08-19T00:52:20;3.26;;;2.64;;
1987;SDS011;12775;46.994;15.498;2022-08-19T00:54:46;4.68;;;3.42;;
1987;SDS011;12775;46.994;15.498;2022-08-19T00:57:15;6.08;;;3.08;;
1987;SDS011;12775;46.994;15.498;2022-08-19T00:59:42;7.46;;;4.12;;
1987;SDS011;12775;46.994;15.498;2022-08-19T01:02:08;2.88;;;2.68;;
1987;SDS011;12775;46.994;15.498;2022-08-19T01:04:36;6.44;;;3.18;;
1987;SDS011;12775;46.994;15.498;2022-08-19T01:07:03;3.68;;;3.08;;
1987;SDS011;12775;46.994;15.498;2022-08-19T01:09:30;8.06;;;3.90;;
1987;SDS011;12775;46.994;15.498;2022-08-19T01:11:58;3.34;;;2.98;;
1987;SDS011;12775;46.994;15.498;2022-08-19T01:14:25;5.06;;;2.88;;
1987;SDS011;12775;46.994;15.498;2022-08-19T01:16:53;6.28;;;3.06;;
1987;SDS011;12775;46.994;15.498;2022-08-19T01:19:27;9.84;;;4.06;;
1987;SDS011;12775;46.994;15.498;2022-08-19T01:21:56;4.96;;;2.90;;
1987;SDS011;12775;46.994;15.498;2022-08-19T01:24:22;6.02;;;3.40;;
1987;SDS011;12775;46.994;15.498;2022-08-19T01:26:50;5.24;;;3.84;;
1987;SDS011;12775;46.994;15.498;2022-08-19T01:29:17;5.74;;;2.54;;
1987;SDS011;12775;46.994;15.498;2022-08-19T01:31:45;4.20;;;3.14;;
1987;SDS011;12775;46.994;15.498;2022-08-19T01:34:12;5.78;;;3.66;;
1987;SDS011;12775;46.994;15.498;2022-08-19T01:36:41;6.30;;;2.66;;
1987;SDS011;12775;46.994;15.498;2022-08-19T01:39:09;5.32;;;3.50;;
1987;SDS011;12775;46.994;15.498;2022-08-19T01:41:34;4.74;;;2.80;;
1987;SDS011;12775;46.994;15.498;2022-08-19T01:44:04;4.64;;;3.16;;
1987;SDS011;12775;46.994;15.498;2022-08-19T01:46:30;9.30;;;2.92;;
1987;SDS011;12775;46.994;15.498;2022-08-19T01:48:57;3.40;;;2.78;;
1987;SDS011;12775;46.994;15.498;2022-08-19T01:51:24;4.80;;;3.14;;
1987;SDS011;12775;46.994;15.498;2022-08-19T01:53:51;4.32;;;2.82;;
1987;SDS011;12775;46.994;15.498;2022-08-19T01:56:19;5.62;;;3.10;;
1987;SDS011;12775;46.994;15.498;2022-08-19T01:58:48;3.14;;;2.48;;
1987;SDS011;12775;46.994;15.498;2022-08-19T02:01:14;6.92;;;3.48;;
1987;SDS011;12775;46.994;15.498;2022-08-19T02:03:41;5.92;;;4.24;;
1987;SDS011;12775;46.994;15.498;2022-08-19T02:06:08;11.72;;;4.28;;
1987;SDS011;12775;46.994;15.498;2022-08-19T02:08:36;5.88;;;3.98;;
1987;SDS011;12775;46.994;15.498;2022-08-19T02:11:03;6.74;;;4.28;;
1987;SDS011;12775;46.994;15.498;2022-08-19T02:13:31;9.44;;;4.32;;
1987;SDS011;12775;46.994;15.498;2022-08-19T02:15:58;3.94;;;3.28;;
1987;SDS011;12775;46.994;15.498;2022-08-19T02:18:26;5.24;;;4.40;;
1987;SDS011;12775;46.994;15.498;2022-08-19T02:20:54;7.36;;;3.54;;
1987;SDS011;12775;46.994;15.498;2022-08-19T02:23:21;5.24;;;2.86;;
1987;SDS011;12775;46.994;15.498;2022-08-19T02:25:48;3.42;;;2.98;;
1987;SDS011;12775;46.994;15.498;2022-08-19T02:28:16;4.24;;;2.76;;
1987;SDS011;12775;46.994;15.498;2022-08-19T02:30:43;6.38;;;3.32;;
1987;SDS011;12775;46.994;15.498;2022-08-19T02:33:11;8.46;;;3.78;;
1987;SDS011;12775;46.994;15.498;2022-08-19T02:35:40;8.44;;;2.90;;
1987;SDS011;12775;46.994;15.498;2022-08-19T02:38:05;5.12;;;3.04;;
1987;SDS011;12775;46.994;15.498;2022-08-19T02:40:38;4.58;;;2.62;;
1987;SDS011;12775;46.994;15.498;2022-08-19T02:43:06;5.92;;;2.96;;
1987;SDS011;12775;46.994;15.498;2022-08-19T02:45:35;2.74;;;2.44;;
1987;SDS011;12775;46.994;15.498;2022-08-19T02:48:02;4.42;;;2.50;;
1987;SDS011;12775;46.994;15.498;2022-08-19T02:50:30;6.16;;;3.68;;
1987;SDS011;12775;46.994;15.498;2022-08-19T02:52:57;5.38;;;3.08;;
1987;SDS011;12775;46.994;15.498;2022-08-19T02:55:24;4.64;;;3.34;;
1987;SDS011;12775;46.994;15.498;2022-08-19T02:57:52;6.16;;;3.32;;
1987;SDS011;12775;46.994;15.498;2022-08-19T03:00:19;6.06;;;3.86;;
1987;SDS011;12775;46.994;15.498;2022-08-19T03:02:46;8.32;;;3.22;;
1987;SDS011;12775;46.994;15.498;2022-08-19T03:05:14;5.78;;;2.90;;
1987;SDS011;12775;46.994;15.498;2022-08-19T03:07:41;4.36;;;3.12;;
1987;SDS011;12775;46.994;15.498;2022-08-19T03:10:08;5.20;;;3.14;;
1987;SDS011;12775;46.994;15.498;2022-08-19T03:12:36;3.16;;;2.86;;
1987;SDS011;12775;46.994;15.498;2022-08-19T03:15:04;4.62;;;3.40;;
1987;SDS011;12775;46.994;15.498;2022-08-19T03:17:32;9.78;;;4.82;;
1987;SDS011;12775;46.994;15.498;2022-08-19T03:19:59;7.00;;;3.10;;
1987;SDS011;12775;46.994;15.498;2022-08-19T03:22:27;7.30;;;2.88;;
1987;SDS011;12775;46.994;15.498;2022-08-19T03:24:55;6.28;;;3.48;;
1987;SDS011;12775;46.994;15.498;2022-08-19T03:27:22;6.60;;;3.86;;
1987;SDS011;12775;46.994;15.498;2022-08-19T03:29:49;6.42;;;3.42;;
1987;SDS011;12775;46.994;15.498;2022-08-19T03:32:17;4.86;;;2.98;;
1987;SDS011;12775;46.994;15.498;2022-08-19T03:34:44;9.40;;;3.28;;
1987;SDS011;12775;46.994;15.498;2022-08-19T03:37:12;5.30;;;3.16;;
1987;SDS011;12775;46.994;15.498;2022-08-19T03:39:39;9.58;;;3.78;;
1987;SDS011;12775;46.994;15.498;2022-08-19T03:42:06;2.70;;;2.50;;
1987;SDS011;12775;46.994;15.498;2022-08-19T03:44:34;3.32;;;2.72;;
1987;SDS011;12775;46.994;15.498;2022-08-19T03:47:01;6.90;;;3.22;;
1987;SDS011;12775;46.994;15.498;2022-08-19T03:49:29;3.80;;;3.40;;
1987;SDS011;12775;46.994;15.498;2022-08-19T03:51:57;8.10;;;3.70;;
1987;SDS011;12775;46.994;15.498;2022-08-19T03:54:24;5.44;;;3.18;;
1987;SDS011;12775;46.994;15.498;2022-08-19T03:56:51;6.16;;;3.14;;
1987;SDS011;12775;46.994;15.498;2022-08-19T03:59:21;3.86;;;3.50;;
1987;SDS011;12775;46.994;15.498;2022-08-19T04:01:46;5.72;;;3.18;;
1987;SDS011;12775;46.994;15.498;2022-08-19T04:04:13;6.40;;;4.04;;
1987;SDS011;12775;46.994;15.498;2022-08-19T04:06:41;4.80;;;2.94;;
1987;SDS011;12775;46.994;15.498;2022-08-19T04:09:09;5.54;;;4.04;;
1987;SDS011;12775;46.994;15.498;2022-08-19T04:11:37;8.78;;;4.10;;
1987;SDS011;12775;46.994;15.498;2022-08-19T04:14:04;6.74;;;3.36;;
1987;SDS011;12775;46.994;15.498;2022-08-19T04:16:31;8.92;;;3.58;;
1987;SDS011;12775;46.994;15.498;2022-08-19T04:19:00;5.38;;;3.06;;
1987;SDS011;12775;46.994;15.498;2022-08-19T04:21:27;4.46;;;4.06;;
1987;SDS011;12775;46.994;15.498;2022-08-19T04:23:55;6.94;;;4.20;;
1987;SDS011;12775;46.994;15.498;2022-08-19T04:26:23;5.04;;;3.50;;
1987;SDS011;12775;46.994;15.498;2022-08-19T04:28:50;4.98;;;3.50;;
1987;SDS011;12775;46.994;15.498;2022-08-19T04:31:19;5.94;;;4.02;;
1987;SDS011;12775;46.994;15.498;2022-08-19T04:33:45;4.12;;;3.72;;
1987;SDS011;12775;46.994;15.498;2022-08-19T04:36:17;11.40;;;4.82;;
1987;SDS011;12775;46.994;15.498;2022-08-19T04:38:44;8.68;;;4.10;;
1987;SDS011;12775;46.994;15.498;2022-08-19T04:41:11;4.96;;;4.34;;
1987;SDS011;12775;46.994;15.498;2022-08-19T04:43:44;7.22;;;4.50;;
1987;SDS011;12775;46.994;15.498;2022-08-19T04:46:14;8.26;;;4.82;;
1987;SDS011;12775;46.994;15.498;2022-08-19T04:48:41;10.38;;;4.54;;
1987;SDS011;12775;46.994;15.498;2022-08-19T04:51:10;12.14;;;5.54;;
1987;SDS011;12775;46.994;15.498;2022-08-19T04:53:37;5.90;;;3.80;;
1987;SDS011;12775;46.994;15.498;2022-08-19T04:56:09;6.86;;;3.76;;
1987;SDS011;12775;46.994;15.498;2022-08-19T04:58:37;4.44;;;3.90;;
1987;SDS011;12775;46.994;15.498;2022-08-19T05:01:04;6.20;;;3.80;;
1987;SDS011;12775;46.994;15.498;2022-08-19T05:03:32;10.66;;;4.60;;
1987;SDS011;12775;46.994;15.498;2022-08-19T05:06:06;6.26;;;3.52;;
1987;SDS011;12775;46.994;15.498;2022-08-19T05:08:35;6.04;;;3.28;;
1987;SDS011;12775;46.994;15.498;2022-08-19T05:11:07;11.92;;;4.40;;
1987;SDS011;12775;46.994;15.498;2022-08-19T05:13:30;4.94;;;3.66;;
1987;SDS011;12775;46.994;15.498;2022-08-19T05:15:57;6.12;;;3.82;;
1987;SDS011;12775;46.994;15.498;2022-08-19T05:18:25;8.70;;;4.98;;
1987;SDS011;12775;46.994;15.498;2022-08-19T05:20:58;8.52;;;5.18;;
1987;SDS011;12775;46.994;15.498;2022-08-19T05:23:31;7.00;;;5.02;;
1987;SDS011;12775;46.994;15.498;2022-08-19T05:25:58;9.20;;;4.92;;
1987;SDS011;12775;46.994;15.498;2022-08-19T05:28:26;4.18;;;3.84;;
1987;SDS011;12775;46.994;15.498;2022-08-19T05:30:53;5.10;;;3.88;;
1987;SDS011;12775;46.994;15.498;2022-08-19T05:33:21;7.64;;;4.42;;
1987;SDS011;12775;46.994;15.498;2022-08-19T05:35:48;5.88;;;4.64;;
1987;SDS011;12775;46.994;15.498;2022-08-19T05:38:17;5.60;;;3.60;;
1987;SDS011;12775;46.994;15.498;2022-08-19T05:40:43;8.42;;;4.14;;
1987;SDS011;12775;46.994;15.498;2022-08-19T05:43:12;5.28;;;3.60;;
1987;SDS011;12775;46.994;15.498;2022-08-19T05:48:22;6.36;;;4.60;;
1987;SDS011;12775;46.994;15.498;2022-08-19T05:50:50;9.24;;;5.56;;
1987;SDS011;12775;46.994;15.498;2022-08-19T05:53:17;20.22;;;5.18;;
1987;SDS011;12775;46.994;15.498;2022-08-19T05:55:45;11.02;;;3.60;;
1987;SDS011;12775;46.994;15.498;2022-08-19T05:58:14;7.36;;;4.10;;
1987;SDS011;12775;46.994;15.498;2022-08-19T06:00:42;5.58;;;3.80;;
1987;SDS011;12775;46.994;15.498;2022-08-19T06:03:10;7.02;;;5.00;;
1987;SDS011;12775;46.994;15.498;2022-08-19T06:05:37;6.80;;;4.32;;
1987;SDS011;12775;46.994;15.498;2022-08-19T06:08:08;5.50;;;4.00;;
1987;SDS011;12775;46.994;15.498;2022-08-19T06:10:35;7.50;;;3.96;;
1987;SDS011;12775;46.994;15.498;2022-08-19T06:13:02;11.70;;;5.70;;
1987;SDS011;12775;46.994;15.498;2022-08-19T06:15:30;8.94;;;5.88;;
1987;SDS011;12775;46.994;15.498;2022-08-19T06:18:00;9.36;;;3.70;;
1987;SDS011;12775;46.994;15.498;2022-08-19T06:20:27;7.68;;;3.82;;
1987;SDS011;12775;46.994;15.498;2022-08-19T06:22:54;9.58;;;5.26;;
1987;SDS011;12775;46.994;15.498;2022-08-19T06:25:24;5.18;;;4.50;;
1987;SDS011;12775;46.994;15.498;2022-08-19T06:27:52;5.32;;;4.52;;
1987;SDS011;12775;46.994;15.498;2022-08-19T06:30:19;5.84;;;4.46;;
1987;SDS011;12775;46.994;15.498;2022-08-19T06:32:48;8.48;;;4.04;;
1987;SDS011;12775;46.994;15.498;2022-08-19T06:35:15;9.36;;;5.56;;
1987;SDS011;12775;46.994;15.498;2022-08-19T06:37:42;7.98;;;4.20;;
1987;SDS011;12775;46.994;15.498;2022-08-19T06:40:10;6.82;;;3.72;;
1987;SDS011;12775;46.994;15.498;2022-08-19T06:42:38;7.50;;;4.30;;
1987;SDS011;12775;46.994;15.498;2022-08-19T06:45:06;9.78;;;5.50;;
1987;SDS011;12775;46.994;15.498;2022-08-19T06:47:35;8.04;;;3.72;;
1987;SDS011;12775;46.994;15.498;2022-08-19T06:50:01;11.98;;;3.78;;
1987;SDS011;12775;46.994;15.498;2022-08-19T06:52:31;7.90;;;3.48;;
1987;SDS011;12775;46.994;15.498;2022-08-19T06:55:00;5.90;;;3.76;;
1987;SDS011;12775;46.994;15.498;2022-08-19T06:57:27;7.14;;;3.66;;
1987;SDS011;12775;46.994;15.498;2022-08-19T06:59:54;7.42;;;4.20;;
1987;SDS011;12775;46.994;15.498;2022-08-19T07:02:21;3.32;;;3.02;;
1987;SDS011;12775;46.994;15.498;2022-08-19T07:04:49;6.34;;;4.24;;
1987;SDS011;12775;46.994;15.498;2022-08-19T07:07:16;6.32;;;3.96;;
1987;SDS011;12775;46.994;15.498;2022-08-19T07:09:44;6.56;;;4.28;;
1987;SDS011;12775;46.994;15.498;2022-08-19T07:12:12;7.18;;;3.96;;
1987;SDS011;12775;46.994;15.498;2022-08-19T07:14:39;10.82;;;4.30;;
1987;SDS011;12775;46.994;15.498;2022-08-19T07:17:09;5.98;;;3.94;;
1987;SDS011;12775;46.994;15.498;2022-08-19T07:19:35;4.94;;;3.48;;
1987;SDS011;12775;46.994;15.498;2022-08-19T07:22:04;6.40;;;4.86;;
1987;SDS011;12775;46.994;15.498;2022-08-19T07:24:31;24.64;;;5.08;;
1987;SDS011;12775;46.994;15.498;2022-08-19T07:26:59;7.32;;;4.20;;
1987;SDS011;12775;46.994;15.498;2022-08-19T07:29:26;6.94;;;4.50;;
1987;SDS011;12775;46.994;15.498;2022-08-19T07:31:55;5.60;;;4.66;;
1987;SDS011;12775;46.994;15.498;2022-08-19T07:34:23;5.62;;;4.34;;
1987;SDS011;12775;46.994;15.498;2022-08-19T07:36:50;5.36;;;4.08;;
1987;SDS011;12775;46.994;15.498;2022-08-19T07:39:18;4.80;;;3.86;;
1987;SDS011;12775;46.994;15.498;2022-08-19T07:41:45;13.74;;;4.54;;
1987;SDS011;12775;46.994;15.498;2022-08-19T07:44:12;7.20;;;4.04;;
1987;SDS011;12775;46.994;15.498;2022-08-19T07:46:40;10.78;;;5.26;;
1987;SDS011;12775;46.994;15.498;2022-08-19T07:49:06;6.46;;;5.22;;
1987;SDS011;12775;46.994;15.498;2022-08-19T07:51:34;8.82;;;3.38;;
1987;SDS011;12775;46.994;15.498;2022-08-19T07:54:01;5.66;;;4.86;;
1987;SDS011;12775;46.994;15.498;2022-08-19T07:56:29;6.40;;;4.74;;
1987;SDS011;12775;46.994;15.498;2022-08-19T07:58:57;12.94;;;4.44;;
1987;SDS011;12775;46.994;15.498;2022-08-19T08:01:25;14.48;;;5.24;;
1987;SDS011;12775;46.994;15.498;2022-08-19T08:03:54;8.82;;;4.00;;
1987;SDS011;12775;46.994;15.498;2022-08-19T08:06:26;7.98;;;4.54;;
1987;SDS011;12775;46.994;15.498;2022-08-19T08:09:00;8.12;;;4.92;;
1987;SDS011;12775;46.994;15.498;2022-08-19T08:11:32;9.48;;;4.28;;
1987;SDS011;12775;46.994;15.498;2022-08-19T08:14:00;11.28;;;5.72;;
1987;SDS011;12775;46.994;15.498;2022-08-19T08:16:28;16.06;;;5.48;;
1987;SDS011;12775;46.994;15.498;2022-08-19T08:18:55;5.18;;;4.30;;
1987;SDS011;12775;46.994;15.498;2022-08-19T08:21:22;6.98;;;4.60;;
1987;SDS011;12775;46.994;15.498;2022-08-19T08:23:49;6.26;;;4.24;;
1987;SDS011;12775;46.994;15.498;2022-08-19T08:26:17;7.32;;;4.68;;
1987;SDS011;12775;46.994;15.498;2022-08-19T08:28:44;7.28;;;3.92;;
1987;SDS011;12775;46.994;15.498;2022-08-19T08:31:12;3.46;;;2.24;;
1987;SDS011;12775;46.994;15.498;2022-08-19T08:33:40;3.06;;;2.24;;
1987;SDS011;12775;46.994;15.498;2022-08-19T08:36:07;3.04;;;2.66;;
1987;SDS011;12775;46.994;15.498;2022-08-19T08:38:35;3.20;;;2.00;;
1987;SDS011;12775;46.994;15.498;2022-08-19T08:41:06;4.42;;;3.20;;
1987;SDS011;12775;46.994;15.498;2022-08-19T08:43:35;6.06;;;3.58;;
1987;SDS011;12775;46.994;15.498;2022-08-19T08:46:04;7.80;;;3.10;;
1987;SDS011;12775;46.994;15.498;2022-08-19T08:48:32;3.94;;;2.76;;
1987;SDS011;12775;46.994;15.498;2022-08-19T08:50:57;5.72;;;3.18;;
1987;SDS011;12775;46.994;15.498;2022-08-19T08:53:26;8.18;;;2.46;;
1987;SDS011;12775;46.994;15.498;2022-08-19T08:55:54;2.62;;;2.00;;
1987;SDS011;12775;46.994;15.498;2022-08-19T08:58:26;3.84;;;2.20;;
1987;SDS011;12775;46.994;15.498;2022-08-19T09:00:54;2.50;;;1.80;;
1987;SDS011;12775;46.994;15.498;2022-08-19T09:03:25;4.22;;;2.32;;
1987;SDS011;12775;46.994;15.498;2022-08-19T09:05:56;4.06;;;2.12;;
1987;SDS011;12775;46.994;15.498;2022-08-19T09:08:33;3.58;;;2.68;;
1987;SDS011;12775;46.994;15.498;2022-08-19T09:11:14;4.52;;;3.60;;
1987;SDS011;12775;46.994;15.498;2022-08-19T09:16:31;4.24;;;3.44;;
1987;SDS011;12775;46.994;15.498;2022-08-19T09:19:02;4.56;;;3.28;;
1987;SDS011;12775;46.994;15.498;2022-08-19T09:21:29;4.52;;;2.70;;
1987;SDS011;12775;46.994;15.498;2022-08-19T09:23:57;2.90;;;2.70;;
1987;SDS011;12775;46.994;15.498;2022-08-19T09:26:24;5.94;;;3.06;;
1987;SDS011;12775;46.994;15.498;2022-08-19T09:28:52;4.74;;;2.76;;
1987;SDS011;12775;46.994;15.498;2022-08-19T09:31:20;5.36;;;2.90;;
1987;SDS011;12775;46.994;15.498;2022-08-19T09:33:46;2.90;;;2.70;;
1987;SDS011;12775;46.994;15.498;2022-08-19T09:36:14;3.10;;;2.90;;
1987;SDS011;12775;46.994;15.498;2022-08-19T09:38:41;3.12;;;2.90;;
1987;SDS011;12775;46.994;15.498;2022-08-19T09:41:11;4.68;;;3.60;;
1987;SDS011;12775;46.994;15.498;2022-08-19T09:43:35;3.36;;;2.70;;
1987;SDS011;12775;46.994;15.498;2022-08-19T09:46:03;3.44;;;3.08;;
1987;SDS011;12775;46.994;15.498;2022-08-19T09:48:31;4.40;;;3.14;;
1987;SDS011;12775;46.994;15.498;2022-08-19T09:51:05;10.18;;;4.72;;
1987;SDS011;12775;46.994;15.498;2022-08-19T09:53:31;3.84;;;3.32;;
1987;SDS011;12775;46.994;15.498;2022-08-19T09:55:58;3.86;;;3.18;;
1987;SDS011;12775;46.994;15.498;2022-08-19T09:58:26;5.80;;;3.20;;
1987;SDS011;12775;46.994;15.498;2022-08-19T10:00:54;3.86;;;2.82;;
1987;SDS011;12775;46.994;15.498;2022-08-19T10:03:20;5.12;;;3.16;;
1987;SDS011;12775;46.994;15.498;2022-08-19T10:05:50;4.90;;;2.96;;
1987;SDS011;12775;46.994;15.498;2022-08-19T10:08:19;3.72;;;2.98;;
1987;SDS011;12775;46.994;15.498;2022-08-19T10:10:45;4.56;;;3.58;;
1987;SDS011;12775;46.994;15.498;2022-08-19T10:13:13;4.08;;;2.74;;
1987;SDS011;12775;46.994;15.498;2022-08-19T10:15:42;4.52;;;2.76;;
1987;SDS011;12775;46.994;15.498;2022-08-19T10:18:09;8.64;;;3.16;;
1987;SDS011;12775;46.994;15.498;2022-08-19T10:20:36;3.70;;;3.26;;
1987;SDS011;12775;46.994;15.498;2022-08-19T10:23:04;4.54;;;2.84;;
1987;SDS011;12775;46.994;15.498;2022-08-19T10:25:31;5.24;;;3.92;;
1987;SDS011;12775;46.994;15.498;2022-08-19T10:27:58;3.86;;;3.04;;
1987;SDS011;12775;46.994;15.498;2022-08-19T10:30:26;5.86;;;3.52;;
1987;SDS011;12775;46.994;15.498;2022-08-19T10:32:54;7.74;;;4.02;;
1987;SDS011;12775;46.994;15.498;2022-08-19T10:35:22;4.24;;;3.34;;
1987;SDS011;12775;46.994;15.498;2022-08-19T10:37:49;6.12;;;3.22;;
1987;SDS011;12775;46.994;15.498;2022-08-19T10:40:16;4.92;;;3.32;;
1987;SDS011;12775;46.994;15.498;2022-08-19T10:42:44;3.60;;;3.02;;
1987;SDS011;12775;46.994;15.498;2022-08-19T10:45:12;5.10;;;3.72;;
1987;SDS011;12775;46.994;15.498;2022-08-19T10:47:39;6.00;;;3.48;;
1987;SDS011;12775;46.994;15.498;2022-08-19T10:50:08;4.32;;;3.40;;
1987;SDS011;12775;46.994;15.498;2022-08-19T10:52:45;3.26;;;2.96;;
1987;SDS011;12775;46.994;15.498;2022-08-19T10:55:11;5.18;;;3.30;;
1987;SDS011;12775;46.994;15.498;2022-08-19T10:57:44;3.08;;;2.72;;
1987;SDS011;12775;46.994;15.498;2022-08-19T11:00:12;3.80;;;3.10;;
1987;SDS011;12775;46.994;15.498;2022-08-19T11:02:40;4.98;;;3.02;;
1987;SDS011;12775;46.994;15.498;2022-08-19T11:05:08;3.82;;;3.20;;
1987;SDS011;12775;46.994;15.498;2022-08-19T11:07:37;3.06;;;2.76;;
1987;SDS011;12775;46.994;15.498;2022-08-19T11:10:05;7.52;;;2.84;;
1987;SDS011;12775;46.994;15.498;2022-08-19T11:12:32;5.58;;;2.88;;
1987;SDS011;12775;46.994;15.498;2022-08-19T11:14:59;5.54;;;4.04;;
1987;SDS011;12775;46.994;15.498;2022-08-19T11:17:27;3.48;;;2.54;;
1987;SDS011;12775;46.994;15.498;2022-08-19T11:19:55;3.78;;;2.68;;
1987;SDS011;12775;46.994;15.498;2022-08-19T11:22:22;3.98;;;2.58;;
1987;SDS011;12775;46.994;15.498;2022-08-19T11:24:49;3.80;;;2.08;;
1987;SDS011;12775;46.994;15.498;2022-08-19T11:27:16;3.88;;;3.10;;
1987;SDS011;12775;46.994;15.498;2022-08-19T11:29:44;3.38;;;2.88;;
1987;SDS011;12775;46.994;15.498;2022-08-19T11:32:12;3.96;;;2.38;;
1987;SDS011;12775;46.994;15.498;2022-08-19T11:34:39;3.76;;;2.68;;
1987;SDS011;12775;46.994;15.498;2022-08-19T11:37:07;5.06;;;3.04;;
1987;SDS011;12775;46.994;15.498;2022-08-19T11:39:33;4.86;;;2.80;;
1987;SDS011;12775;46.994;15.498;2022-08-19T11:42:03;4.12;;;2.18;;
1987;SDS011;12775;46.994;15.498;2022-08-19T11:44:30;3.74;;;2.60;;
1987;SDS011;12775;46.994;15.498;2022-08-19T11:46:58;2.46;;;1.90;;
1987;SDS011;12775;46.994;15.498;2022-08-19T11:49:25;5.18;;;2.76;;
1987;SDS011;12775;46.994;15.498;2022-08-19T11:51:51;2.84;;;2.46;;
1987;SDS011;12775;46.994;15.498;2022-08-19T11:54:19;3.64;;;2.26;;
1987;SDS011;12775;46.994;15.498;2022-08-19T11:56:46;5.10;;;2.40;;
1987;SDS011;12775;46.994;15.498;2022-08-19T11:59:14;6.34;;;2.80;;
1987;SDS011;12775;46.994;15.498;2022-08-19T12:01:41;3.80;;;2.46;;
1987;SDS011;12775;46.994;15.498;2022-08-19T12:04:08;5.62;;;2.74;;
1987;SDS011;12775;46.994;15.498;2022-08-19T12:06:37;3.26;;;2.60;;
1987;SDS011;12775;46.994;15.498;2022-08-19T12:09:05;6.62;;;3.20;;
1987;SDS011;12775;46.994;15.498;2022-08-19T12:11:31;3.56;;;2.12;;
1987;SDS011;12775;46.994;15.498;2022-08-19T12:13:58;3.74;;;3.04;;
1987;SDS011;12775;46.994;15.498;2022-08-19T12:16:26;2.62;;;2.40;;
1987;SDS011;12775;46.994;15.498;2022-08-19T12:18:53;5.64;;;2.50;;
1987;SDS011;12775;46.994;15.498;2022-08-19T12:21:23;6.74;;;2.94;;
1987;SDS011;12775;46.994;15.498;2022-08-19T12:23:50;5.06;;;2.42;;
1987;SDS011;12775;46.994;15.498;2022-08-19T12:26:17;6.20;;;3.50;;
1987;SDS011;12775;46.994;15.498;2022-08-19T12:28:44;2.76;;;2.50;;
1987;SDS011;12775;46.994;15.498;2022-08-19T12:31:11;5.80;;;3.04;;
1987;SDS011;12775;46.994;15.498;2022-08-19T12:33:39;5.34;;;2.84;;
1987;SDS011;12775;46.994;15.498;2022-08-19T12:36:07;7.40;;;3.54;;
1987;SDS011;12775;46.994;15.498;2022-08-19T12:38:35;3.48;;;2.98;;
1987;SDS011;12775;46.994;15.498;2022-08-19T12:41:02;4.70;;;3.26;;
1987;SDS011;12775;46.994;15.498;2022-08-19T12:43:30;7.00;;;2.68;;
1987;SDS011;12775;46.994;15.498;2022-08-19T12:45:57;4.24;;;3.44;;
1987;SDS011;12775;46.994;15.498;2022-08-19T12:48:24;6.10;;;3.00;;
1987;SDS011;12775;46.994;15.498;2022-08-19T12:50:52;3.18;;;2.70;;
1987;SDS011;12775;46.994;15.498;2022-08-19T12:53:19;5.20;;;3.66;;
1987;SDS011;12775;46.994;15.498;2022-08-19T12:55:47;7.14;;;3.26;;
1987;SDS011;12775;46.994;15.498;2022-08-19T12:58:14;5.26;;;2.64;;
1987;SDS011;12775;46.994;15.498;2022-08-19T13:00:41;6.16;;;3.46;;
1987;SDS011;12775;46.994;15.498;2022-08-19T13:03:09;8.28;;;2.56;;
1987;SDS011;12775;46.994;15.498;2022-08-19T13:05:36;7.14;;;3.28;;
1987;SDS011;12775;46.994;15.498;2022-08-19T13:08:04;4.84;;;2.70;;
1987;SDS011;12775;46.994;15.498;2022-08-19T13:10:33;9.10;;;3.50;;
1987;SDS011;12775;46.994;15.498;2022-08-19T13:13:06;5.72;;;3.02;;
1987;SDS011;12775;46.994;15.498;2022-08-19T13:15:32;4.34;;;3.00;;
1987;SDS011;12775;46.994;15.498;2022-08-19T13:17:57;3.94;;;2.50;;
1987;SDS011;12775;46.994;15.498;2022-08-19T13:20:25;4.80;;;2.62;;
1987;SDS011;12775;46.994;15.498;2022-08-19T13:22:52;5.22;;;3.12;;
1987;SDS011;12775;46.994;15.498;2022-08-19T13:25:20;6.46;;;3.18;;
1987;SDS011;12775;46.994;15.498;2022-08-19T13:27:48;8.20;;;2.86;;
1987;SDS011;12775;46.994;15.498;2022-08-19T13:30:15;5.32;;;2.78;;
1987;SDS011;12775;46.994;15.498;2022-08-19T13:32:48;9.64;;;3.12;;
1987;SDS011;12775;46.994;15.498;2022-08-19T13:35:21;7.08;;;3.40;;
1987;SDS011;12775;46.994;15.498;2022-08-19T13:37:48;5.08;;;2.54;;
1987;SDS011;12775;46.994;15.498;2022-08-19T13:40:17;6.50;;;3.36;;
1987;SDS011;12775;46.994;15.498;2022-08-19T13:42:45;4.82;;;2.86;;
1987;SDS011;12775;46.994;15.498;2022-08-19T13:45:12;5.26;;;3.02;;
1987;SDS011;12775;46.994;15.498;2022-08-19T13:47:39;5.82;;;2.96;;
1987;SDS011;12775;46.994;15.498;2022-08-19T13:50:10;4.76;;;2.60;;
1987;SDS011;12775;46.994;15.498;2022-08-19T13:52:37;6.90;;;3.08;;
1987;SDS011;12775;46.994;15.498;2022-08-19T13:55:05;5.78;;;2.72;;
1987;SDS011;12775;46.994;15.498;2022-08-19T13:57:33;8.08;;;3.08;;
1987;SDS011;12775;46.994;15.498;2022-08-19T14:00:02;5.80;;;2.58;;
1987;SDS011;12775;46.994;15.498;2022-08-19T14:02:28;5.66;;;3.10;;
1987;SDS011;12775;46.994;15.498;2022-08-19T14:04:56;7.58;;;3.06;;
1987;SDS011;12775;46.994;15.498;2022-08-19T14:07:23;6.66;;;2.70;;
1987;SDS011;12775;46.994;15.498;2022-08-19T14:09:51;3.96;;;2.62;;
1987;SDS011;12775;46.994;15.498;2022-08-19T14:12:20;6.74;;;2.78;;
1987;SDS011;12775;46.994;15.498;2022-08-19T14:14:46;5.62;;;2.86;;
1987;SDS011;12775;46.994;15.498;2022-08-19T14:17:14;7.90;;;3.78;;
1987;SDS011;12775;46.994;15.498;2022-08-19T14:19:42;5.04;;;2.28;;
1987;SDS011;12775;46.994;15.498;2022-08-19T14:22:09;4.08;;;2.60;;
1987;SDS011;12775;46.994;15.498;2022-08-19T14:24:37;9.46;;;3.02;;
1987;SDS011;12775;46.994;15.498;2022-08-19T14:27:03;4.48;;;2.62;;
1987;SDS011;12775;46.994;15.498;2022-08-19T14:29:31;6.12;;;3.12;;
1987;SDS011;12775;46.994;15.498;2022-08-19T14:31:58;8.06;;;3.16;;
1987;SDS011;12775;46.994;15.498;2022-08-19T14:34:27;8.72;;;2.60;;
1987;SDS011;12775;46.994;15.498;2022-08-19T14:36:56;5.40;;;2.98;;
1987;SDS011;12775;46.994;15.498;2022-08-19T14:39:23;5.14;;;3.40;;
1987;SDS011;12775;46.994;15.498;2022-08-19T14:41:50;7.98;;;3.10;;
1987;SDS011;12775;46.994;15.498;2022-08-19T14:44:17;9.66;;;4.20;;
1987;SDS011;12775;46.994;15.498;2022-08-19T14:46:45;6.96;;;3.26;;
1987;SDS011;12775;46.994;15.498;2022-08-19T14:49:12;9.68;;;3.80;;
1987;SDS011;12775;46.994;15.498;2022-08-19T14:51:39;6.36;;;2.72;;
1987;SDS011;12775;46.994;15.498;2022-08-19T14:54:07;9.38;;;2.52;;
1987;SDS011;12775;46.994;15.498;2022-08-19T14:56:36;6.16;;;3.44;;